createdAt,value
2018-12-30T00:01:10.800Z,30.77
2018-12-30T00:03:51.632Z,29.80
2018-12-30T00:06:32.464Z,30.75
2018-12-30T00:09:13.660Z,29.90
2018-12-30T00:11:54.724Z,29.75
2018-12-30T00:14:35.422Z,29.23
2018-12-30T00:17:16.169Z,28.35
2018-12-30T00:19:56.704Z,29.42
2018-12-30T00:22:37.408Z,28.50
2018-12-30T00:25:17.937Z,27.95
2018-12-30T00:27:58.740Z,25.07
2018-12-30T00:30:39.640Z,27.22
2018-12-30T00:33:20.477Z,25.95
2018-12-30T00:36:01.549Z,25.30
2018-12-30T00:38:42.325Z,24.57
2018-12-30T00:41:22.989Z,23.75
2018-12-30T00:44:05.081Z,24.67
2018-12-30T00:46:46.032Z,22.50
2018-12-30T00:49:26.956Z,22.90
2018-12-30T00:52:07.734Z,22.85
2018-12-30T00:54:48.380Z,21.70
2018-12-30T00:57:29.257Z,21.27
2018-12-30T01:00:10.553Z,21.87
2018-12-30T01:02:51.788Z,21.37
2018-12-30T01:05:33.275Z,19.87
2018-12-30T01:08:14.529Z,19.90
2018-12-30T01:10:55.726Z,19.50
2018-12-30T01:13:37.315Z,19.15
2018-12-30T01:16:18.524Z,19.42
2018-12-30T01:18:59.566Z,19.60
2018-12-30T01:21:41.141Z,19.12
2018-12-30T01:24:21.976Z,18.67
2018-12-30T01:27:02.952Z,19.23
2018-12-30T01:29:43.968Z,18.95
2018-12-30T01:32:25.365Z,18.80
2018-12-30T01:35:06.416Z,19.12
2018-12-30T01:37:46.764Z,19.00
2018-12-30T01:40:27.704Z,18.30
2018-12-30T01:43:09.305Z,18.50
2018-12-30T01:45:50.065Z,18.93
2018-12-30T01:48:30.552Z,18.37
2018-12-30T01:51:11.352Z,17.73
2018-12-30T01:53:52.376Z,18.00
2018-12-30T01:56:33.177Z,17.98
2018-12-30T01:59:14.057Z,18.15
2018-12-30T02:01:54.684Z,18.98
2018-12-30T02:04:35.676Z,17.70
2018-12-30T02:07:16.637Z,17.50
2018-12-30T02:09:57.188Z,18.35
2018-12-30T02:12:38.152Z,17.75
2018-12-30T02:15:19.425Z,17.55
2018-12-30T02:18:00.552Z,19.05
2018-12-30T02:20:41.549Z,18.37
2018-12-30T02:23:22.681Z,17.85
2018-12-30T02:26:03.704Z,18.73
2018-12-30T02:28:44.729Z,18.42
2018-12-30T02:31:25.605Z,18.52
2018-12-30T02:34:06.555Z,18.52
2018-12-30T02:36:47.585Z,17.40
2018-12-30T02:39:28.104Z,18.02
2018-12-30T02:42:08.929Z,17.83
2018-12-30T02:44:50.089Z,18.15
2018-12-30T02:47:30.861Z,17.70
2018-12-30T02:50:11.713Z,17.05
2018-12-30T02:52:52.711Z,16.70
2018-12-30T02:55:33.868Z,17.07
2018-12-30T02:58:14.862Z,16.10
2018-12-30T03:00:55.852Z,15.35
2018-12-30T03:03:36.851Z,15.53
2018-12-30T03:06:17.936Z,15.45
2018-12-30T03:08:58.710Z,15.32
2018-12-30T03:11:39.845Z,14.93
2018-12-30T03:14:20.778Z,15.17
2018-12-30T03:17:01.574Z,15.60
2018-12-30T03:19:42.094Z,15.87
2018-12-30T03:22:22.702Z,15.25
2018-12-30T03:25:03.763Z,15.80
2018-12-30T03:27:44.341Z,16.12
2018-12-30T03:30:25.082Z,16.15
2018-12-30T03:33:06.227Z,16.05
2018-12-30T03:35:47.144Z,17.30
2018-12-30T03:38:27.783Z,17.23
2018-12-30T03:41:08.589Z,18.15
2018-12-30T03:43:49.138Z,17.47
2018-12-30T03:46:30.020Z,17.57
2018-12-30T03:49:10.799Z,17.85
2018-12-30T03:51:51.650Z,17.75
2018-12-30T03:54:32.259Z,18.95
2018-12-30T03:57:13.080Z,18.67
2018-12-30T03:59:53.785Z,18.48
2018-12-30T04:02:34.874Z,19.00
2018-12-30T04:05:15.740Z,19.10
2018-12-30T04:07:56.536Z,19.43
2018-12-30T04:10:37.444Z,19.87
2018-12-30T04:13:18.308Z,19.57
2018-12-30T04:15:59.040Z,19.95
2018-12-30T04:18:39.908Z,19.03
2018-12-30T04:21:20.905Z,19.82
2018-12-30T04:24:01.654Z,19.62
2018-12-30T04:26:42.426Z,20.62
2018-12-30T04:29:23.517Z,20.33
2018-12-30T04:32:04.334Z,21.95
2018-12-30T04:34:45.361Z,20.75
2018-12-30T04:37:26.298Z,21.53
2018-12-30T04:40:07.270Z,20.57
2018-12-30T04:42:48.028Z,21.42
2018-12-30T04:45:29.089Z,22.13
2018-12-30T04:48:09.925Z,22.27
2018-12-30T04:50:50.963Z,22.40
2018-12-30T04:53:31.955Z,21.68
2018-12-30T04:56:12.609Z,21.60
2018-12-30T04:58:53.435Z,22.45
2018-12-30T05:01:34.179Z,21.65
2018-12-30T05:04:14.757Z,23.00
2018-12-30T05:06:55.498Z,22.55
2018-12-30T05:09:36.061Z,22.13
2018-12-30T05:12:18.425Z,21.70
2018-12-30T05:14:59.315Z,21.62
2018-12-30T05:17:40.267Z,21.63
2018-12-30T05:20:20.872Z,21.73
2018-12-30T05:23:01.726Z,21.25
2018-12-30T05:25:43.180Z,22.20
2018-12-30T05:28:23.972Z,22.17
2018-12-30T05:31:04.897Z,22.53
2018-12-30T05:33:45.907Z,22.52
2018-12-30T05:36:26.689Z,22.48
2018-12-30T05:39:07.613Z,22.55
2018-12-30T05:41:48.756Z,24.00
2018-12-30T05:44:29.348Z,24.00
2018-12-30T05:47:10.170Z,24.23
2018-12-30T05:49:51.269Z,24.65
2018-12-30T05:52:32.040Z,23.22
2018-12-30T05:55:13.030Z,23.12
2018-12-30T05:57:53.808Z,22.77
2018-12-30T06:00:34.719Z,23.55
2018-12-30T06:03:15.489Z,23.60
2018-12-30T06:05:56.345Z,23.98
2018-12-30T06:08:36.869Z,22.98
2018-12-30T06:11:17.763Z,22.33
2018-12-30T06:13:58.797Z,23.25
2018-12-30T06:16:39.548Z,21.27
2018-12-30T06:19:20.324Z,21.93
2018-12-30T06:22:01.492Z,21.50
2018-12-30T06:24:42.360Z,21.63
2018-12-30T06:27:23.297Z,21.15
2018-12-30T06:30:03.937Z,20.43
2018-12-30T06:32:45.069Z,20.60
2018-12-30T06:35:29.639Z,21.60
2018-12-30T06:38:10.572Z,21.02
2018-12-30T06:40:51.630Z,20.57
2018-12-30T06:43:32.649Z,20.65
2018-12-30T06:46:13.633Z,20.50
2018-12-30T06:48:54.650Z,20.50
2018-12-30T06:51:35.524Z,20.68
2018-12-30T06:54:16.496Z,19.70
2018-12-30T06:56:57.643Z,19.57
2018-12-30T06:59:38.681Z,20.02
2018-12-30T07:02:19.686Z,20.10
2018-12-30T07:05:00.893Z,19.15
2018-12-30T07:07:41.928Z,20.40
2018-12-30T07:10:22.952Z,18.90
2018-12-30T07:13:03.905Z,18.80
2018-12-30T07:15:44.854Z,19.37
2018-12-30T07:18:25.868Z,17.55
2018-12-30T07:21:06.565Z,17.12
2018-12-30T07:23:47.521Z,18.05
2018-12-30T07:26:28.296Z,17.32
2018-12-30T07:29:09.060Z,17.67
2018-12-30T07:31:49.867Z,17.32
2018-12-30T07:34:30.953Z,16.40
2018-12-30T07:37:12.124Z,16.82
2018-12-30T07:39:53.184Z,16.00
2018-12-30T07:42:34.240Z,17.40
2018-12-30T07:45:15.156Z,16.77
2018-12-30T07:47:56.100Z,16.90
2018-12-30T07:50:37.049Z,17.10
2018-12-30T07:53:18.241Z,16.02
2018-12-30T07:55:59.295Z,17.07
2018-12-30T07:58:40.177Z,17.90
2018-12-30T08:01:21.140Z,17.30
2018-12-30T08:04:02.245Z,18.02
2018-12-30T08:06:43.308Z,17.23
2018-12-30T08:09:23.901Z,18.90
2018-12-30T08:12:04.685Z,18.20
2018-12-30T08:14:45.520Z,17.98
2018-12-30T08:17:26.609Z,19.30
2018-12-30T08:20:07.624Z,19.73
2018-12-30T08:22:48.753Z,20.32
2018-12-30T08:25:29.676Z,19.00
2018-12-30T08:28:10.620Z,19.42
2018-12-30T08:30:51.804Z,19.75
2018-12-30T08:33:32.906Z,19.27
2018-12-30T08:36:14.113Z,19.30
2018-12-30T08:38:55.458Z,19.23
2018-12-30T08:41:36.051Z,19.70
2018-12-30T08:44:17.221Z,18.95
2018-12-30T08:46:57.987Z,18.80
2018-12-30T08:49:39.066Z,18.15
2018-12-30T08:52:19.554Z,18.70
2018-12-30T08:55:00.249Z,19.25
2018-12-30T08:57:41.145Z,18.60
2018-12-30T09:00:22.167Z,17.85
2018-12-30T09:03:03.188Z,17.98
2018-12-30T09:05:43.921Z,18.85
2018-12-30T09:08:24.541Z,16.62
2018-12-30T09:11:06.026Z,17.20
2018-12-30T09:13:47.035Z,17.17
2018-12-30T09:16:28.441Z,17.35
2018-12-30T09:19:09.469Z,17.35
2018-12-30T09:21:50.174Z,17.17
2018-12-30T09:24:31.057Z,18.50
2018-12-30T09:27:11.979Z,16.35
2018-12-30T09:29:53.034Z,16.27
2018-12-30T09:32:33.783Z,15.83
2018-12-30T09:35:14.769Z,16.65
2018-12-30T09:37:55.261Z,15.50
2018-12-30T09:40:36.041Z,16.10
2018-12-30T09:43:16.833Z,16.37
2018-12-30T09:45:57.834Z,15.68
2018-12-30T09:48:38.674Z,16.02
2018-12-30T09:51:19.704Z,16.52
2018-12-30T09:54:00.713Z,16.32
2018-12-30T09:56:41.812Z,16.25
2018-12-30T09:59:22.752Z,15.18
2018-12-30T10:02:04.009Z,15.95
2018-12-30T10:04:44.408Z,15.85
2018-12-30T10:07:25.414Z,16.50
2018-12-30T10:10:06.631Z,14.50
2018-12-30T10:12:47.392Z,15.10
2018-12-30T10:15:28.387Z,15.28
2018-12-30T10:18:08.928Z,15.08
2018-12-30T10:20:49.985Z,14.43
2018-12-30T10:23:31.566Z,15.72
2018-12-30T10:26:12.881Z,14.47
2018-12-30T10:28:53.913Z,14.78
2018-12-30T10:31:34.884Z,14.90
2018-12-30T10:34:15.447Z,15.23
2018-12-30T10:36:56.372Z,14.73
2018-12-30T10:39:36.977Z,14.85
2018-12-30T10:42:17.822Z,14.23
2018-12-30T10:44:58.613Z,14.38
2018-12-30T10:47:39.597Z,13.90
2018-12-30T10:50:20.289Z,13.00
2018-12-30T10:53:00.913Z,14.03
2018-12-30T10:55:42.063Z,13.60
2018-12-30T10:58:22.789Z,13.45
2018-12-30T11:01:03.300Z,12.78
2018-12-30T11:03:44.270Z,13.32
2018-12-30T11:06:25.296Z,13.25
2018-12-30T11:09:06.082Z,13.20
2018-12-30T11:11:48.755Z,13.60
2018-12-30T11:14:29.693Z,13.13
2018-12-30T11:17:10.708Z,13.15
2018-12-30T11:19:51.269Z,12.53
2018-12-30T11:22:32.040Z,13.03
2018-12-30T11:25:12.678Z,12.37
2018-12-30T11:27:53.589Z,11.55
2018-12-30T11:30:34.110Z,12.82
2018-12-30T11:33:14.901Z,11.80
2018-12-30T11:35:55.765Z,12.07
2018-12-30T11:38:36.779Z,13.08
2018-12-30T11:41:17.235Z,11.80
2018-12-30T11:43:57.988Z,13.62
2018-12-30T11:46:38.650Z,12.70
2018-12-30T11:49:19.732Z,12.23
2018-12-30T11:52:00.820Z,11.93
2018-12-30T11:54:41.818Z,13.10
2018-12-30T11:57:22.956Z,11.95
2018-12-30T12:00:03.893Z,12.97
2018-12-30T12:02:44.509Z,13.20
2018-12-30T12:05:25.589Z,13.10
2018-12-30T12:08:06.654Z,12.37
2018-12-30T12:10:47.357Z,13.03
2018-12-30T12:13:28.120Z,12.55
2018-12-30T12:16:09.057Z,12.60
2018-12-30T12:18:49.839Z,11.88
2018-12-30T12:21:30.580Z,11.97
2018-12-30T12:24:11.620Z,12.40
2018-12-30T12:29:40.843Z,11.88
2018-12-30T12:32:22.076Z,11.38
2018-12-30T12:35:02.999Z,11.03
2018-12-30T12:37:44.028Z,11.40
2018-12-30T12:40:24.995Z,11.43
2018-12-30T12:43:05.694Z,10.85
2018-12-30T12:45:46.835Z,10.40
2018-12-30T12:48:27.656Z,10.78
2018-12-30T12:51:08.556Z,10.58
2018-12-30T12:53:49.357Z,9.88
2018-12-30T12:56:30.378Z,10.30
2018-12-30T12:59:11.270Z,9.18
2018-12-30T13:01:51.697Z,10.30
2018-12-30T13:04:32.448Z,9.85
2018-12-30T13:07:13.124Z,9.60
2018-12-30T13:09:54.417Z,9.78
2018-12-30T13:12:35.205Z,10.15
2018-12-30T13:15:16.042Z,9.55
2018-12-30T13:17:56.990Z,9.87
2018-12-30T13:20:37.948Z,10.15
2018-12-30T13:23:18.929Z,9.65
2018-12-30T13:25:59.672Z,9.35
2018-12-30T13:28:40.509Z,9.05
2018-12-30T13:31:21.204Z,9.35
2018-12-30T13:34:01.789Z,9.15
2018-12-30T13:36:42.470Z,9.20
2018-12-30T13:39:23.291Z,9.33
2018-12-30T13:42:04.077Z,9.48
2018-12-30T13:44:44.648Z,9.00
2018-12-30T13:47:25.353Z,8.65
2018-12-30T13:50:06.433Z,8.78
2018-12-30T13:52:47.456Z,8.93
2018-12-30T13:55:28.280Z,9.43
2018-12-30T13:58:09.049Z,9.40
2018-12-30T14:00:49.726Z,8.88
2018-12-30T14:03:30.508Z,9.40
2018-12-30T14:06:11.633Z,8.25
2018-12-30T14:08:52.305Z,9.58
2018-12-30T14:11:33.031Z,9.25
2018-12-30T14:14:14.121Z,8.60
2018-12-30T14:16:54.885Z,8.18
2018-12-30T14:19:35.632Z,9.40
2018-12-30T14:22:16.809Z,9.05
2018-12-30T14:24:57.638Z,9.30
2018-12-30T14:27:38.468Z,9.13
2018-12-30T14:30:19.171Z,9.18
2018-12-30T14:32:59.972Z,9.50
2018-12-30T14:35:40.957Z,8.95
2018-12-30T14:38:21.508Z,9.23
2018-12-30T14:41:02.372Z,8.93
2018-12-30T14:43:43.429Z,9.23
2018-12-30T14:46:24.250Z,9.37
2018-12-30T14:49:05.118Z,9.30
2018-12-30T14:51:45.938Z,9.18
2018-12-30T14:54:26.805Z,9.58
2018-12-30T14:57:07.715Z,9.28
2018-12-30T14:59:48.565Z,9.18
2018-12-30T15:02:29.389Z,9.10
2018-12-30T15:05:09.937Z,9.85
2018-12-30T15:07:51.068Z,9.48
2018-12-30T15:10:31.756Z,9.03
2018-12-30T15:13:12.693Z,8.23
2018-12-30T15:15:53.681Z,8.90
2018-12-30T15:18:34.188Z,9.15
2018-12-30T15:21:14.940Z,9.55
2018-12-30T15:23:55.854Z,8.60
2018-12-30T15:26:36.968Z,9.08
2018-12-30T15:29:17.943Z,9.48
2018-12-30T15:31:58.736Z,8.68
2018-12-30T15:34:39.708Z,8.40
2018-12-30T15:37:20.529Z,8.70
2018-12-30T15:40:01.375Z,8.40
2018-12-30T15:42:41.914Z,8.73
2018-12-30T15:45:22.795Z,8.38
2018-12-30T15:48:03.563Z,8.63
2018-12-30T15:50:44.458Z,8.15
2018-12-30T15:53:25.664Z,8.15
2018-12-30T15:56:07.089Z,7.67
2018-12-30T15:58:47.937Z,8.90
2018-12-30T16:01:28.861Z,8.23
2018-12-30T16:04:09.939Z,7.87
2018-12-30T16:06:50.713Z,8.28
2018-12-30T16:09:31.310Z,8.13
2018-12-30T16:12:12.061Z,8.18
2018-12-30T16:14:53.100Z,8.25
2018-12-30T16:17:34.160Z,8.15
2018-12-30T16:20:15.246Z,8.20
2018-12-30T16:22:56.290Z,8.25
2018-12-30T16:25:37.032Z,7.95
2018-12-30T16:28:17.801Z,8.13
2018-12-30T16:30:58.536Z,8.40
2018-12-30T16:33:39.469Z,9.13
2018-12-30T16:36:20.590Z,8.80
2018-12-30T16:39:01.478Z,9.05
2018-12-30T16:41:42.088Z,8.63
2018-12-30T16:44:22.717Z,8.58
2018-12-30T16:47:03.521Z,9.65
2018-12-30T16:49:44.381Z,9.08
2018-12-30T16:52:25.125Z,9.20
2018-12-30T16:55:05.735Z,9.68
2018-12-30T16:57:46.725Z,9.43
2018-12-30T17:00:27.636Z,9.48
2018-12-30T17:03:08.617Z,9.43
2018-12-30T17:05:49.389Z,9.50
2018-12-30T17:08:30.054Z,10.13
2018-12-30T17:11:12.945Z,9.78
2018-12-30T17:13:53.751Z,9.63
2018-12-30T17:16:34.532Z,9.75
2018-12-30T17:19:18.803Z,9.93
2018-12-30T17:22:05.508Z,9.97
2018-12-30T17:24:51.632Z,9.53
2018-12-30T17:27:33.390Z,9.60
2018-12-30T17:30:14.213Z,9.50
2018-12-30T17:32:54.989Z,9.40
2018-12-30T17:35:35.529Z,8.85
2018-12-30T17:38:16.256Z,9.93
2018-12-30T17:41:01.567Z,9.20
2018-12-30T17:43:40.246Z,9.75
2018-12-30T17:46:21.330Z,8.98
2018-12-30T17:49:02.510Z,10.15
2018-12-30T17:51:43.299Z,10.40
2018-12-30T17:54:24.308Z,10.48
2018-12-30T17:57:05.400Z,10.45
2018-12-30T17:59:46.280Z,9.83
2018-12-30T18:02:27.309Z,10.50
2018-12-30T18:05:08.393Z,10.08
2018-12-30T18:07:49.514Z,10.08
2018-12-30T18:10:30.006Z,10.55
2018-12-30T18:13:11.037Z,10.60
2018-12-30T18:15:51.672Z,10.72
2018-12-30T18:18:32.860Z,10.82
2018-12-30T18:21:13.836Z,11.03
2018-12-30T18:23:54.840Z,10.50
2018-12-30T18:26:37.944Z,10.55
2018-12-30T18:29:17.981Z,11.00
2018-12-30T18:31:59.033Z,11.45
2018-12-30T18:34:40.052Z,10.68
2018-12-30T18:37:23.210Z,11.12
2018-12-30T18:40:03.706Z,11.20
2018-12-30T18:42:44.221Z,11.50
2018-12-30T18:45:24.724Z,10.75
2018-12-30T18:48:05.581Z,10.97
2018-12-30T18:50:46.656Z,12.53
2018-12-30T18:53:27.792Z,12.28
2018-12-30T18:56:08.761Z,11.53
2018-12-30T18:58:49.608Z,11.83
2018-12-30T19:01:30.620Z,11.33
2018-12-30T19:04:11.619Z,11.70
2018-12-30T19:06:52.640Z,11.35
2018-12-30T19:09:33.386Z,11.20
2018-12-30T19:12:14.232Z,10.95
2018-12-30T19:14:55.025Z,11.80
2018-12-30T19:17:35.985Z,12.05
2018-12-30T19:20:16.905Z,12.65
2018-12-30T19:22:57.933Z,12.43
2018-12-30T19:25:38.775Z,13.00
2018-12-30T19:28:19.869Z,12.15
2018-12-30T19:31:00.531Z,12.23
2018-12-30T19:33:41.368Z,11.78
2018-12-30T19:36:22.345Z,10.78
2018-12-30T19:39:04.601Z,11.65
2018-12-30T19:41:45.649Z,10.10
2018-12-30T19:44:26.286Z,11.40
2018-12-30T19:47:07.230Z,10.58
2018-12-30T19:49:48.396Z,11.65
2018-12-30T19:52:29.121Z,11.33
2018-12-30T19:55:14.279Z,11.40
2018-12-30T19:57:57.057Z,11.33
2018-12-30T20:00:38.504Z,12.03
2018-12-30T20:03:20.376Z,11.93
2018-12-30T20:06:04.858Z,11.90
2018-12-30T20:08:46.566Z,12.60
2018-12-30T20:11:27.396Z,12.50
2018-12-30T20:14:08.809Z,12.33
2018-12-30T20:16:50.419Z,12.43
2018-12-30T20:19:31.680Z,11.83
2018-12-30T20:22:12.551Z,12.05
2018-12-30T20:24:53.421Z,12.13
2018-12-30T20:27:34.615Z,11.55
2018-12-30T20:30:15.397Z,11.50
2018-12-30T20:32:56.108Z,11.05
2018-12-30T20:35:36.552Z,12.63
2018-12-30T20:38:19.114Z,11.60
2018-12-30T20:41:00.001Z,11.08
2018-12-30T20:43:40.973Z,11.12
2018-12-30T20:46:21.719Z,10.80
2018-12-30T20:49:02.601Z,11.20
2018-12-30T20:51:43.584Z,11.00
2018-12-30T20:54:24.457Z,10.28
2018-12-30T20:57:05.344Z,10.95
2018-12-30T20:59:46.102Z,11.38
2018-12-30T21:02:26.825Z,10.55
2018-12-30T21:05:07.560Z,10.55
2018-12-30T21:07:48.669Z,10.60
2018-12-30T21:10:29.427Z,11.30
2018-12-30T21:13:10.575Z,10.53
2018-12-30T21:15:51.838Z,10.95
2018-12-30T21:18:33.453Z,10.55
2018-12-30T21:21:14.126Z,10.23
2018-12-30T21:23:55.260Z,10.18
2018-12-30T21:26:36.597Z,10.15
2018-12-30T21:29:17.376Z,10.55
2018-12-30T21:31:58.322Z,9.50
2018-12-30T21:34:38.847Z,10.08
2018-12-30T21:37:19.422Z,9.70
2018-12-30T21:40:00.269Z,9.35
2018-12-30T21:42:43.944Z,9.43
2018-12-30T21:45:23.778Z,9.73
2018-12-30T21:48:04.636Z,9.07
2018-12-30T21:50:45.669Z,9.68
2018-12-30T21:53:26.865Z,9.77
2018-12-30T21:56:07.616Z,9.48
2018-12-30T21:58:48.568Z,9.10
2018-12-30T22:01:29.352Z,8.75
2018-12-30T22:04:10.449Z,9.35
2018-12-30T22:06:51.370Z,8.75
2018-12-30T22:09:32.423Z,8.93
2018-12-30T22:12:13.169Z,8.80
2018-12-30T22:14:53.965Z,9.05
2018-12-30T22:17:34.815Z,9.13
2018-12-30T22:20:16.010Z,8.70
2018-12-30T22:22:56.643Z,8.70
2018-12-30T22:25:37.409Z,9.18
2018-12-30T22:28:18.236Z,9.60
2018-12-30T22:30:59.068Z,9.50
2018-12-30T22:33:39.997Z,9.68
2018-12-30T22:36:20.759Z,9.43
2018-12-30T22:39:01.989Z,10.10
2018-12-30T22:41:42.846Z,9.95
2018-12-30T22:44:23.861Z,10.60
2018-12-30T22:47:04.948Z,10.20
2018-12-30T22:49:45.761Z,10.60
2018-12-30T22:52:26.945Z,10.03
2018-12-30T22:55:08.291Z,10.10
2018-12-30T22:57:49.429Z,9.87
2018-12-30T23:00:32.044Z,9.75
2018-12-30T23:03:13.268Z,10.63
2018-12-30T23:05:54.078Z,10.45
2018-12-30T23:08:35.032Z,9.93
2018-12-30T23:11:16.171Z,10.25
2018-12-30T23:13:56.797Z,11.00
2018-12-30T23:16:37.512Z,10.50
2018-12-30T23:19:17.893Z,10.65
2018-12-30T23:21:58.673Z,11.67
2018-12-30T23:24:39.530Z,11.28
2018-12-30T23:27:20.560Z,10.60
2018-12-30T23:30:01.260Z,11.30
2018-12-30T23:32:42.245Z,10.72
2018-12-30T23:35:23.142Z,11.78
2018-12-30T23:38:04.073Z,13.43
2018-12-30T23:40:45.044Z,15.08
2018-12-30T23:43:26.104Z,17.77
2018-12-30T23:46:07.258Z,18.07
2018-12-30T23:48:48.241Z,20.17
2018-12-30T23:51:29.228Z,20.23
2018-12-30T23:54:10.316Z,18.42
2018-12-30T23:56:51.580Z,18.15
2018-12-30T23:59:32.709Z,16.50
